sensor_id;sensor_type;location;lat;lon;timestamp;P1;durP1;ratioP1;P2;durP2;ratioP2
37517;SDS011;23366;52.498;13.446;2023-02-21T00:02:11;6.40;;;3.03;;
37517;SDS011;23366;52.498;13.446;2023-02-21T00:04:55;5.00;;;2.60;;
37517;SDS011;23366;52.498;13.446;2023-02-21T00:07:39;5.82;;;3.25;;
37517;SDS011;23366;52.498;13.446;2023-02-21T00:10:23;5.78;;;3.33;;
37517;SDS011;23366;52.498;13.446;2023-02-21T00:13:08;6.75;;;2.95;;
37517;SDS011;23366;52.498;13.446;2023-02-21T00:15:55;4.40;;;2.95;;
37517;SDS011;23366;52.498;13.446;2023-02-21T00:18:40;6.15;;;3.17;;
37517;SDS011;23366;52.498;13.446;2023-02-21T00:21:27;4.47;;;3.20;;
37517;SDS011;23366;52.498;13.446;2023-02-21T00:24:13;5.90;;;3.67;;
37517;SDS011;23366;52.498;13.446;2023-02-21T00:26:59;7.82;;;3.22;;
37517;SDS011;23366;52.498;13.446;2023-02-21T00:29:45;5.95;;;2.70;;
37517;SDS011;23366;52.498;13.446;2023-02-21T00:32:32;5.32;;;2.80;;
37517;SDS011;23366;52.498;13.446;2023-02-21T00:35:16;9.95;;;4.00;;
37517;SDS011;23366;52.498;13.446;2023-02-21T00:38:01;6.80;;;3.67;;
37517;SDS011;23366;52.498;13.446;2023-02-21T00:40:46;6.00;;;3.28;;
37517;SDS011;23366;52.498;13.446;2023-02-21T00:43:37;5.28;;;2.78;;
37517;SDS011;23366;52.498;13.446;2023-02-21T00:46:21;6.57;;;3.28;;
37517;SDS011;23366;52.498;13.446;2023-02-21T00:49:06;5.28;;;3.05;;
37517;SDS011;23366;52.498;13.446;2023-02-21T00:51:53;5.50;;;3.55;;
37517;SDS011;23366;52.498;13.446;2023-02-21T00:54:48;6.05;;;3.33;;
37517;SDS011;23366;52.498;13.446;2023-02-21T00:57:32;7.00;;;3.80;;
37517;SDS011;23366;52.498;13.446;2023-02-21T01:00:18;5.47;;;3.63;;
37517;SDS011;23366;52.498;13.446;2023-02-21T01:03:04;8.73;;;4.00;;
37517;SDS011;23366;52.498;13.446;2023-02-21T01:05:49;8.65;;;4.30;;
37517;SDS011;23366;52.498;13.446;2023-02-21T01:08:34;6.43;;;3.65;;
37517;SDS011;23366;52.498;13.446;2023-02-21T01:11:19;5.82;;;3.80;;
37517;SDS011;23366;52.498;13.446;2023-02-21T01:14:04;10.35;;;4.78;;
37517;SDS011;23366;52.498;13.446;2023-02-21T01:16:50;7.85;;;3.92;;
37517;SDS011;23366;52.498;13.446;2023-02-21T01:19:35;6.50;;;4.30;;
37517;SDS011;23366;52.498;13.446;2023-02-21T01:22:19;9.30;;;4.80;;
37517;SDS011;23366;52.498;13.446;2023-02-21T01:25:04;11.05;;;5.18;;
37517;SDS011;23366;52.498;13.446;2023-02-21T01:27:48;6.53;;;3.97;;
37517;SDS011;23366;52.498;13.446;2023-02-21T01:30:33;8.02;;;4.32;;
37517;SDS011;23366;52.498;13.446;2023-02-21T01:33:17;9.82;;;4.97;;
37517;SDS011;23366;52.498;13.446;2023-02-21T01:36:05;7.60;;;4.68;;
37517;SDS011;23366;52.498;13.446;2023-02-21T01:38:50;8.70;;;4.68;;
37517;SDS011;23366;52.498;13.446;2023-02-21T01:41:34;11.20;;;6.05;;
37517;SDS011;23366;52.498;13.446;2023-02-21T01:44:33;10.88;;;4.70;;
37517;SDS011;23366;52.498;13.446;2023-02-21T01:47:22;21.75;;;4.90;;
37517;SDS011;23366;52.498;13.446;2023-02-21T01:53:01;14.10;;;6.63;;
37517;SDS011;23366;52.498;13.446;2023-02-21T01:55:50;10.82;;;5.35;;
37517;SDS011;23366;52.498;13.446;2023-02-21T01:58:41;9.63;;;6.20;;
37517;SDS011;23366;52.498;13.446;2023-02-21T02:01:40;8.93;;;5.75;;
37517;SDS011;23366;52.498;13.446;2023-02-21T02:04:42;7.57;;;4.75;;
37517;SDS011;23366;52.498;13.446;2023-02-21T02:07:29;11.50;;;6.22;;
37517;SDS011;23366;52.498;13.446;2023-02-21T02:10:19;8.85;;;5.28;;
37517;SDS011;23366;52.498;13.446;2023-02-21T02:15:42;10.18;;;5.03;;
37517;SDS011;23366;52.498;13.446;2023-02-21T02:38:58;13.25;;;5.90;;
37517;SDS011;23366;52.498;13.446;2023-02-21T02:44:49;9.82;;;5.65;;
37517;SDS011;23366;52.498;13.446;2023-02-21T02:47:22;13.83;;;6.70;;
37517;SDS011;23366;52.498;13.446;2023-02-21T02:49:53;16.92;;;6.60;;
37517;SDS011;23366;52.498;13.446;2023-02-21T02:52:21;11.18;;;5.95;;
37517;SDS011;23366;52.498;13.446;2023-02-21T02:58:08;9.80;;;4.95;;
37517;SDS011;23366;52.498;13.446;2023-02-21T03:00:36;11.60;;;5.78;;
37517;SDS011;23366;52.498;13.446;2023-02-21T03:03:12;11.77;;;7.03;;
37517;SDS011;23366;52.498;13.446;2023-02-21T03:11:36;11.40;;;6.20;;
37517;SDS011;23366;52.498;13.446;2023-02-21T03:14:14;12.73;;;7.22;;
37517;SDS011;23366;52.498;13.446;2023-02-21T03:16:49;13.68;;;6.95;;
37517;SDS011;23366;52.498;13.446;2023-02-21T03:19:25;11.25;;;5.75;;
37517;SDS011;23366;52.498;13.446;2023-02-21T03:22:00;12.25;;;6.32;;
37517;SDS011;23366;52.498;13.446;2023-02-21T03:24:29;9.80;;;6.25;;
37517;SDS011;23366;52.498;13.446;2023-02-21T03:26:58;11.73;;;5.63;;
37517;SDS011;23366;52.498;13.446;2023-02-21T03:29:26;11.38;;;6.40;;
37517;SDS011;23366;52.498;13.446;2023-02-21T03:31:54;13.07;;;6.63;;
37517;SDS011;23366;52.498;13.446;2023-02-21T03:34:24;15.75;;;6.45;;
37517;SDS011;23366;52.498;13.446;2023-02-21T03:36:59;9.52;;;5.95;;
37517;SDS011;23366;52.498;13.446;2023-02-21T03:39:26;14.90;;;6.43;;
37517;SDS011;23366;52.498;13.446;2023-02-21T03:41:53;11.15;;;5.25;;
37517;SDS011;23366;52.498;13.446;2023-02-21T03:44:18;11.20;;;5.60;;
37517;SDS011;23366;52.498;13.446;2023-02-21T03:46:45;10.15;;;5.65;;
37517;SDS011;23366;52.498;13.446;2023-02-21T03:49:11;11.35;;;6.05;;
37517;SDS011;23366;52.498;13.446;2023-02-21T03:51:36;9.18;;;5.45;;
37517;SDS011;23366;52.498;13.446;2023-02-21T03:54:02;12.30;;;6.38;;
37517;SDS011;23366;52.498;13.446;2023-02-21T03:56:27;10.45;;;5.50;;
37517;SDS011;23366;52.498;13.446;2023-02-21T03:58:53;14.18;;;6.32;;
37517;SDS011;23366;52.498;13.446;2023-02-21T04:01:18;10.25;;;5.80;;
37517;SDS011;23366;52.498;13.446;2023-02-21T04:03:44;13.07;;;6.50;;
37517;SDS011;23366;52.498;13.446;2023-02-21T04:06:10;11.15;;;6.20;;
37517;SDS011;23366;52.498;13.446;2023-02-21T04:08:35;10.65;;;6.00;;
37517;SDS011;23366;52.498;13.446;2023-02-21T04:11:01;8.77;;;5.20;;
37517;SDS011;23366;52.498;13.446;2023-02-21T04:13:28;9.55;;;5.72;;
37517;SDS011;23366;52.498;13.446;2023-02-21T04:15:54;12.32;;;6.63;;
37517;SDS011;23366;52.498;13.446;2023-02-21T04:18:19;9.48;;;5.00;;
37517;SDS011;23366;52.498;13.446;2023-02-21T04:20:46;14.43;;;6.63;;
37517;SDS011;23366;52.498;13.446;2023-02-21T04:23:15;12.48;;;6.28;;
37517;SDS011;23366;52.498;13.446;2023-02-21T04:25:41;11.13;;;5.63;;
37517;SDS011;23366;52.498;13.446;2023-02-21T04:28:07;13.15;;;5.75;;
37517;SDS011;23366;52.498;13.446;2023-02-21T04:30:34;7.55;;;4.90;;
37517;SDS011;23366;52.498;13.446;2023-02-21T04:32:59;12.15;;;6.00;;
37517;SDS011;23366;52.498;13.446;2023-02-21T04:35:27;8.27;;;4.90;;
37517;SDS011;23366;52.498;13.446;2023-02-21T04:38:06;8.05;;;5.30;;
37517;SDS011;23366;52.498;13.446;2023-02-21T04:40:32;8.77;;;4.65;;
37517;SDS011;23366;52.498;13.446;2023-02-21T04:42:57;8.18;;;4.43;;
37517;SDS011;23366;52.498;13.446;2023-02-21T04:45:23;9.50;;;5.78;;
37517;SDS011;23366;52.498;13.446;2023-02-21T04:47:50;8.93;;;5.35;;
37517;SDS011;23366;52.498;13.446;2023-02-21T04:50:29;10.48;;;5.43;;
37517;SDS011;23366;52.498;13.446;2023-02-21T04:52:55;9.82;;;5.80;;
37517;SDS011;23366;52.498;13.446;2023-02-21T04:55:21;10.52;;;6.13;;
37517;SDS011;23366;52.498;13.446;2023-02-21T04:57:51;11.48;;;5.68;;
37517;SDS011;23366;52.498;13.446;2023-02-21T05:00:18;10.35;;;5.10;;
37517;SDS011;23366;52.498;13.446;2023-02-21T05:02:44;9.30;;;4.50;;
37517;SDS011;23366;52.498;13.446;2023-02-21T05:05:09;10.82;;;5.03;;
37517;SDS011;23366;52.498;13.446;2023-02-21T05:07:35;10.77;;;5.53;;
37517;SDS011;23366;52.498;13.446;2023-02-21T05:10:03;10.20;;;6.20;;
37517;SDS011;23366;52.498;13.446;2023-02-21T05:12:32;11.43;;;5.60;;
37517;SDS011;23366;52.498;13.446;2023-02-21T05:14:58;10.68;;;7.13;;
37517;SDS011;23366;52.498;13.446;2023-02-21T05:17:24;11.52;;;5.50;;
37517;SDS011;23366;52.498;13.446;2023-02-21T05:19:52;17.13;;;7.00;;
37517;SDS011;23366;52.498;13.446;2023-02-21T05:22:19;10.55;;;5.85;;
37517;SDS011;23366;52.498;13.446;2023-02-21T05:24:45;9.73;;;5.20;;
37517;SDS011;23366;52.498;13.446;2023-02-21T05:27:13;12.52;;;6.22;;
37517;SDS011;23366;52.498;13.446;2023-02-21T05:29:51;12.43;;;6.18;;
37517;SDS011;23366;52.498;13.446;2023-02-21T05:32:18;12.25;;;6.45;;
37517;SDS011;23366;52.498;13.446;2023-02-21T05:34:45;9.60;;;5.95;;
37517;SDS011;23366;52.498;13.446;2023-02-21T05:37:18;9.15;;;4.57;;
37517;SDS011;23366;52.498;13.446;2023-02-21T05:39:45;11.65;;;5.68;;
37517;SDS011;23366;52.498;13.446;2023-02-21T05:42:11;12.02;;;5.32;;
37517;SDS011;23366;52.498;13.446;2023-02-21T05:44:36;11.30;;;6.35;;
37517;SDS011;23366;52.498;13.446;2023-02-21T05:47:02;12.40;;;7.03;;
37517;SDS011;23366;52.498;13.446;2023-02-21T05:49:28;9.90;;;5.28;;
37517;SDS011;23366;52.498;13.446;2023-02-21T05:51:53;14.10;;;5.35;;
37517;SDS011;23366;52.498;13.446;2023-02-21T05:54:22;10.88;;;6.57;;
37517;SDS011;23366;52.498;13.446;2023-02-21T05:56:50;11.35;;;6.30;;
37517;SDS011;23366;52.498;13.446;2023-02-21T05:59:19;11.88;;;5.95;;
37517;SDS011;23366;52.498;13.446;2023-02-21T06:01:45;10.30;;;5.47;;
37517;SDS011;23366;52.498;13.446;2023-02-21T06:04:12;10.27;;;5.85;;
37517;SDS011;23366;52.498;13.446;2023-02-21T06:06:37;9.18;;;5.28;;
37517;SDS011;23366;52.498;13.446;2023-02-21T06:09:03;10.25;;;5.43;;
37517;SDS011;23366;52.498;13.446;2023-02-21T06:11:30;9.27;;;5.70;;
37517;SDS011;23366;52.498;13.446;2023-02-21T06:13:58;12.57;;;5.80;;
37517;SDS011;23366;52.498;13.446;2023-02-21T06:16:26;13.13;;;5.80;;
37517;SDS011;23366;52.498;13.446;2023-02-21T06:18:53;12.27;;;5.53;;
37517;SDS011;23366;52.498;13.446;2023-02-21T06:21:20;11.75;;;5.57;;
37517;SDS011;23366;52.498;13.446;2023-02-21T06:23:46;9.82;;;5.93;;
37517;SDS011;23366;52.498;13.446;2023-02-21T06:26:12;12.23;;;6.15;;
37517;SDS011;23366;52.498;13.446;2023-02-21T06:28:38;12.48;;;6.65;;
37517;SDS011;23366;52.498;13.446;2023-02-21T06:31:04;12.75;;;7.13;;
37517;SDS011;23366;52.498;13.446;2023-02-21T06:33:30;14.07;;;7.03;;
37517;SDS011;23366;52.498;13.446;2023-02-21T06:35:57;11.13;;;6.15;;
37517;SDS011;23366;52.498;13.446;2023-02-21T06:38:23;12.70;;;6.28;;
37517;SDS011;23366;52.498;13.446;2023-02-21T06:40:56;9.85;;;5.70;;
37517;SDS011;23366;52.498;13.446;2023-02-21T06:43:22;10.50;;;5.38;;
37517;SDS011;23366;52.498;13.446;2023-02-21T06:45:49;10.98;;;5.80;;
37517;SDS011;23366;52.498;13.446;2023-02-21T06:48:15;10.43;;;6.05;;
37517;SDS011;23366;52.498;13.446;2023-02-21T06:50:42;10.90;;;4.60;;
37517;SDS011;23366;52.498;13.446;2023-02-21T06:53:09;6.88;;;4.35;;
37517;SDS011;23366;52.498;13.446;2023-02-21T06:55:35;8.95;;;4.78;;
37517;SDS011;23366;52.498;13.446;2023-02-21T06:58:10;11.90;;;4.90;;
37517;SDS011;23366;52.498;13.446;2023-02-21T07:00:55;8.13;;;4.18;;
37517;SDS011;23366;52.498;13.446;2023-02-21T07:03:20;8.50;;;3.67;;
37517;SDS011;23366;52.498;13.446;2023-02-21T07:06:00;6.38;;;4.07;;
37517;SDS011;23366;52.498;13.446;2023-02-21T07:08:27;7.80;;;3.97;;
37517;SDS011;23366;52.498;13.446;2023-02-21T07:10:52;7.75;;;3.67;;
37517;SDS011;23366;52.498;13.446;2023-02-21T07:13:18;6.70;;;3.75;;
37517;SDS011;23366;52.498;13.446;2023-02-21T07:15:43;6.40;;;2.97;;
37517;SDS011;23366;52.498;13.446;2023-02-21T07:18:09;5.90;;;3.20;;
37517;SDS011;23366;52.498;13.446;2023-02-21T07:20:35;6.32;;;3.08;;
37517;SDS011;23366;52.498;13.446;2023-02-21T07:23:00;8.30;;;4.00;;
37517;SDS011;23366;52.498;13.446;2023-02-21T07:25:27;7.25;;;3.15;;
37517;SDS011;23366;52.498;13.446;2023-02-21T07:27:54;5.35;;;2.60;;
37517;SDS011;23366;52.498;13.446;2023-02-21T07:30:20;5.68;;;3.20;;
37517;SDS011;23366;52.498;13.446;2023-02-21T07:32:45;5.05;;;2.97;;
37517;SDS011;23366;52.498;13.446;2023-02-21T07:35:11;6.15;;;3.10;;
37517;SDS011;23366;52.498;13.446;2023-02-21T07:37:37;4.30;;;2.92;;
37517;SDS011;23366;52.498;13.446;2023-02-21T07:40:03;5.50;;;3.30;;
37517;SDS011;23366;52.498;13.446;2023-02-21T07:42:31;5.32;;;3.17;;
37517;SDS011;23366;52.498;13.446;2023-02-21T07:44:56;3.78;;;2.03;;
37517;SDS011;23366;52.498;13.446;2023-02-21T07:47:25;6.88;;;4.20;;
37517;SDS011;23366;52.498;13.446;2023-02-21T07:49:51;6.53;;;3.15;;
37517;SDS011;23366;52.498;13.446;2023-02-21T07:52:18;4.45;;;2.85;;
37517;SDS011;23366;52.498;13.446;2023-02-21T07:54:44;5.03;;;2.97;;
37517;SDS011;23366;52.498;13.446;2023-02-21T07:57:10;3.70;;;2.15;;
37517;SDS011;23366;52.498;13.446;2023-02-21T07:59:45;4.57;;;2.33;;
37517;SDS011;23366;52.498;13.446;2023-02-21T08:02:21;3.75;;;2.55;;
37517;SDS011;23366;52.498;13.446;2023-02-21T08:04:51;7.13;;;2.70;;
37517;SDS011;23366;52.498;13.446;2023-02-21T08:07:17;7.70;;;3.55;;
37517;SDS011;23366;52.498;13.446;2023-02-21T08:09:44;4.65;;;2.33;;
37517;SDS011;23366;52.498;13.446;2023-02-21T08:12:12;7.63;;;3.70;;
37517;SDS011;23366;52.498;13.446;2023-02-21T08:14:39;5.40;;;2.60;;
37517;SDS011;23366;52.498;13.446;2023-02-21T08:17:04;5.32;;;3.42;;
37517;SDS011;23366;52.498;13.446;2023-02-21T08:19:34;5.60;;;2.55;;
37517;SDS011;23366;52.498;13.446;2023-02-21T08:22:00;5.65;;;2.25;;
37517;SDS011;23366;52.498;13.446;2023-02-21T08:24:35;4.93;;;2.72;;
37517;SDS011;23366;52.498;13.446;2023-02-21T08:27:00;3.67;;;2.67;;
37517;SDS011;23366;52.498;13.446;2023-02-21T08:29:26;3.40;;;1.80;;
37517;SDS011;23366;52.498;13.446;2023-02-21T08:31:52;5.07;;;2.47;;
37517;SDS011;23366;52.498;13.446;2023-02-21T08:34:18;7.38;;;1.95;;
37517;SDS011;23366;52.498;13.446;2023-02-21T08:36:44;2.55;;;1.60;;
37517;SDS011;23366;52.498;13.446;2023-02-21T08:39:09;2.03;;;1.15;;
37517;SDS011;23366;52.498;13.446;2023-02-21T08:44:02;3.25;;;1.55;;
37517;SDS011;23366;52.498;13.446;2023-02-21T08:46:32;2.72;;;1.15;;
37517;SDS011;23366;52.498;13.446;2023-02-21T08:48:58;2.33;;;1.45;;
37517;SDS011;23366;52.498;13.446;2023-02-21T08:51:24;3.40;;;1.23;;
37517;SDS011;23366;52.498;13.446;2023-02-21T08:53:51;1.27;;;1.00;;
37517;SDS011;23366;52.498;13.446;2023-02-21T08:56:18;1.63;;;0.90;;
37517;SDS011;23366;52.498;13.446;2023-02-21T08:58:50;1.67;;;1.00;;
37517;SDS011;23366;52.498;13.446;2023-02-21T09:01:35;1.92;;;1.23;;
37517;SDS011;23366;52.498;13.446;2023-02-21T09:04:01;1.30;;;0.93;;
37517;SDS011;23366;52.498;13.446;2023-02-21T09:06:28;2.00;;;1.02;;
37517;SDS011;23366;52.498;13.446;2023-02-21T09:08:53;1.10;;;0.73;;
37517;SDS011;23366;52.498;13.446;2023-02-21T09:11:19;1.73;;;1.13;;
37517;SDS011;23366;52.498;13.446;2023-02-21T09:13:45;4.88;;;1.40;;
37517;SDS011;23366;52.498;13.446;2023-02-21T09:16:15;1.67;;;0.98;;
37517;SDS011;23366;52.498;13.446;2023-02-21T09:18:40;2.10;;;1.40;;
37517;SDS011;23366;52.498;13.446;2023-02-21T09:21:06;1.90;;;1.58;;
37517;SDS011;23366;52.498;13.446;2023-02-21T09:23:33;2.67;;;1.00;;
37517;SDS011;23366;52.498;13.446;2023-02-21T09:25:58;1.88;;;0.77;;
37517;SDS011;23366;52.498;13.446;2023-02-21T09:28:26;1.88;;;1.08;;
37517;SDS011;23366;52.498;13.446;2023-02-21T09:30:53;2.80;;;1.20;;
37517;SDS011;23366;52.498;13.446;2023-02-21T09:33:21;5.45;;;1.17;;
37517;SDS011;23366;52.498;13.446;2023-02-21T09:35:46;4.35;;;1.25;;
37517;SDS011;23366;52.498;13.446;2023-02-21T09:38:15;2.50;;;0.77;;
37517;SDS011;23366;52.498;13.446;2023-02-21T09:40:48;3.80;;;1.10;;
37517;SDS011;23366;52.498;13.446;2023-02-21T09:43:20;11.70;;;1.50;;
37517;SDS011;23366;52.498;13.446;2023-02-21T09:45:53;7.95;;;2.13;;
37517;SDS011;23366;52.498;13.446;2023-02-21T09:48:22;7.68;;;1.48;;
37517;SDS011;23366;52.498;13.446;2023-02-21T09:50:52;1.50;;;0.70;;
37517;SDS011;23366;52.498;13.446;2023-02-21T09:53:21;4.60;;;0.80;;
37517;SDS011;23366;52.498;13.446;2023-02-21T09:55:52;2.90;;;0.80;;
37517;SDS011;23366;52.498;13.446;2023-02-21T09:58:25;2.67;;;0.98;;
37517;SDS011;23366;52.498;13.446;2023-02-21T10:00:51;4.45;;;1.02;;
37517;SDS011;23366;52.498;13.446;2023-02-21T10:06:41;5.03;;;1.88;;
37517;SDS011;23366;52.498;13.446;2023-02-21T10:09:26;4.57;;;1.40;;
37517;SDS011;23366;52.498;13.446;2023-02-21T10:14:54;6.50;;;1.42;;
37517;SDS011;23366;52.498;13.446;2023-02-21T10:20:50;1.65;;;0.82;;
37517;SDS011;23366;52.498;13.446;2023-02-21T10:26:28;2.42;;;1.23;;
37517;SDS011;23366;52.498;13.446;2023-02-21T10:29:01;3.97;;;1.23;;
37517;SDS011;23366;52.498;13.446;2023-02-21T10:31:32;5.20;;;0.80;;
37517;SDS011;23366;52.498;13.446;2023-02-21T10:34:02;5.07;;;1.40;;
37517;SDS011;23366;52.498;13.446;2023-02-21T10:36:47;6.50;;;1.75;;
37517;SDS011;23366;52.498;13.446;2023-02-21T10:39:16;6.22;;;1.42;;
37517;SDS011;23366;52.498;13.446;2023-02-21T10:41:46;2.17;;;0.85;;
37517;SDS011;23366;52.498;13.446;2023-02-21T10:44:21;4.93;;;1.05;;
37517;SDS011;23366;52.498;13.446;2023-02-21T10:47:07;4.28;;;1.13;;
37517;SDS011;23366;52.498;13.446;2023-02-21T10:52:35;6.78;;;2.30;;
37517;SDS011;23366;52.498;13.446;2023-02-21T10:55:04;1.55;;;1.33;;
37517;SDS011;23366;52.498;13.446;2023-02-21T10:57:53;3.08;;;1.42;;
37517;SDS011;23366;52.498;13.446;2023-02-21T11:00:24;4.72;;;0.90;;
37517;SDS011;23366;52.498;13.446;2023-02-21T11:02:55;7.03;;;1.17;;
37517;SDS011;23366;52.498;13.446;2023-02-21T11:05:29;5.55;;;0.95;;
37517;SDS011;23366;52.498;13.446;2023-02-21T11:07:59;14.18;;;1.55;;
37517;SDS011;23366;52.498;13.446;2023-02-21T11:10:32;3.33;;;1.48;;
37517;SDS011;23366;52.498;13.446;2023-02-21T11:13:06;2.60;;;0.90;;
37517;SDS011;23366;52.498;13.446;2023-02-21T11:15:42;2.38;;;0.70;;
37517;SDS011;23366;52.498;13.446;2023-02-21T11:18:16;6.60;;;2.75;;
37517;SDS011;23366;52.498;13.446;2023-02-21T11:20:44;2.47;;;0.80;;
37517;SDS011;23366;52.498;13.446;2023-02-21T11:23:22;3.65;;;1.63;;
37517;SDS011;23366;52.498;13.446;2023-02-21T11:26:05;7.43;;;1.55;;
37517;SDS011;23366;52.498;13.446;2023-02-21T11:28:41;10.63;;;2.15;;
37517;SDS011;23366;52.498;13.446;2023-02-21T11:33:59;6.50;;;1.58;;
37517;SDS011;23366;52.498;13.446;2023-02-21T11:36:28;5.25;;;1.77;;
37517;SDS011;23366;52.498;13.446;2023-02-21T11:39:00;6.28;;;1.58;;
37517;SDS011;23366;52.498;13.446;2023-02-21T11:43:56;3.95;;;2.05;;
37517;SDS011;23366;52.498;13.446;2023-02-21T11:46:33;4.93;;;1.85;;
37517;SDS011;23366;52.498;13.446;2023-02-21T11:51:40;2.47;;;1.05;;
37517;SDS011;23366;52.498;13.446;2023-02-21T11:54:07;3.63;;;1.40;;
37517;SDS011;23366;52.498;13.446;2023-02-21T12:02:51;7.13;;;2.05;;
37517;SDS011;23366;52.498;13.446;2023-02-21T12:08:23;3.88;;;0.90;;
37517;SDS011;23366;52.498;13.446;2023-02-21T12:17:08;6.18;;;0.95;;
37517;SDS011;23366;52.498;13.446;2023-02-21T12:29:05;8.27;;;1.50;;
37517;SDS011;23366;52.498;13.446;2023-02-21T12:33:50;5.38;;;3.10;;
37517;SDS011;23366;52.498;13.446;2023-02-21T12:36:41;8.98;;;1.20;;
37517;SDS011;23366;52.498;13.446;2023-02-21T12:48:03;11.48;;;1.65;;
37517;SDS011;23366;52.498;13.446;2023-02-21T12:50:37;2.33;;;1.00;;
37517;SDS011;23366;52.498;13.446;2023-02-21T12:55:41;3.30;;;1.50;;
37517;SDS011;23366;52.498;13.446;2023-02-21T12:58:27;3.38;;;2.25;;
37517;SDS011;23366;52.498;13.446;2023-02-21T13:00:59;7.80;;;2.00;;
37517;SDS011;23366;52.498;13.446;2023-02-21T13:06:22;3.92;;;1.55;;
37517;SDS011;23366;52.498;13.446;2023-02-21T13:11:54;4.05;;;1.52;;
37517;SDS011;23366;52.498;13.446;2023-02-21T13:14:33;5.20;;;1.83;;
37517;SDS011;23366;52.498;13.446;2023-02-21T13:17:03;6.93;;;1.77;;
37517;SDS011;23366;52.498;13.446;2023-02-21T13:22:29;13.25;;;2.15;;
37517;SDS011;23366;52.498;13.446;2023-02-21T13:28:25;5.30;;;1.27;;
37517;SDS011;23366;52.498;13.446;2023-02-21T13:30:59;13.13;;;2.35;;
37517;SDS011;23366;52.498;13.446;2023-02-21T13:36:27;9.77;;;1.92;;
37517;SDS011;23366;52.498;13.446;2023-02-21T13:39:19;8.07;;;3.92;;
37517;SDS011;23366;52.498;13.446;2023-02-21T13:42:02;8.25;;;1.65;;
37517;SDS011;23366;52.498;13.446;2023-02-21T13:44:49;7.88;;;1.75;;
37517;SDS011;23366;52.498;13.446;2023-02-21T13:47:19;3.65;;;1.20;;
37517;SDS011;23366;52.498;13.446;2023-02-21T13:49:49;6.60;;;2.03;;
37517;SDS011;23366;52.498;13.446;2023-02-21T14:03:03;4.72;;;1.35;;
37517;SDS011;23366;52.498;13.446;2023-02-21T14:11:19;12.10;;;2.55;;
37517;SDS011;23366;52.498;13.446;2023-02-21T14:13:48;10.95;;;2.92;;
37517;SDS011;23366;52.498;13.446;2023-02-21T14:18:52;3.95;;;1.90;;
37517;SDS011;23366;52.498;13.446;2023-02-21T14:21:35;6.80;;;2.15;;
37517;SDS011;23366;52.498;13.446;2023-02-21T14:24:11;5.97;;;1.80;;
37517;SDS011;23366;52.498;13.446;2023-02-21T14:26:45;4.70;;;1.75;;
37517;SDS011;23366;52.498;13.446;2023-02-21T14:29:26;8.57;;;2.08;;
37517;SDS011;23366;52.498;13.446;2023-02-21T14:37:10;10.02;;;1.90;;
37517;SDS011;23366;52.498;13.446;2023-02-21T14:40:00;11.63;;;3.05;;
37517;SDS011;23366;52.498;13.446;2023-02-21T14:56:22;6.68;;;2.30;;
37517;SDS011;23366;52.498;13.446;2023-02-21T14:59:07;10.40;;;2.45;;
37517;SDS011;23366;52.498;13.446;2023-02-21T15:10:02;7.70;;;1.48;;
37517;SDS011;23366;52.498;13.446;2023-02-21T15:12:38;13.02;;;2.38;;
37517;SDS011;23366;52.498;13.446;2023-02-21T15:15:18;7.40;;;2.15;;
37517;SDS011;23366;52.498;13.446;2023-02-21T15:17:58;10.40;;;2.42;;
37517;SDS011;23366;52.498;13.446;2023-02-21T15:20:25;6.22;;;1.98;;
37517;SDS011;23366;52.498;13.446;2023-02-21T15:22:54;5.68;;;2.20;;
37517;SDS011;23366;52.498;13.446;2023-02-21T15:25:54;8.73;;;2.92;;
37517;SDS011;23366;52.498;13.446;2023-02-21T15:28:22;6.97;;;1.92;;
37517;SDS011;23366;52.498;13.446;2023-02-21T15:31:01;8.25;;;1.95;;
37517;SDS011;23366;52.498;13.446;2023-02-21T15:33:31;15.05;;;3.65;;
37517;SDS011;23366;52.498;13.446;2023-02-21T15:44:19;7.53;;;2.28;;
37517;SDS011;23366;52.498;13.446;2023-02-21T15:47:00;6.63;;;2.28;;
37517;SDS011;23366;52.498;13.446;2023-02-21T15:51:55;7.78;;;3.00;;
37517;SDS011;23366;52.498;13.446;2023-02-21T15:57:02;6.55;;;1.98;;
37517;SDS011;23366;52.498;13.446;2023-02-21T15:59:35;10.60;;;1.58;;
37517;SDS011;23366;52.498;13.446;2023-02-21T16:04:37;13.13;;;1.77;;
37517;SDS011;23366;52.498;13.446;2023-02-21T16:07:04;5.65;;;1.75;;
37517;SDS011;23366;52.498;13.446;2023-02-21T16:09:32;10.13;;;2.28;;
37517;SDS011;23366;52.498;13.446;2023-02-21T16:17:22;11.63;;;2.70;;
37517;SDS011;23366;52.498;13.446;2023-02-21T16:19:54;8.13;;;2.88;;
37517;SDS011;23366;52.498;13.446;2023-02-21T16:25:46;9.15;;;3.25;;
37517;SDS011;23366;52.498;13.446;2023-02-21T16:27:57;8.98;;;2.53;;
37517;SDS011;23366;52.498;13.446;2023-02-21T16:30:25;17.15;;;2.30;;
37517;SDS011;23366;52.498;13.446;2023-02-21T16:32:59;7.80;;;2.83;;
37517;SDS011;23366;52.498;13.446;2023-02-21T16:35:26;5.88;;;1.13;;
37517;SDS011;23366;52.498;13.446;2023-02-21T16:37:53;9.50;;;2.20;;
37517;SDS011;23366;52.498;13.446;2023-02-21T16:40:22;7.82;;;2.38;;
37517;SDS011;23366;52.498;13.446;2023-02-21T16:42:53;14.00;;;2.53;;
37517;SDS011;23366;52.498;13.446;2023-02-21T16:45:20;8.88;;;1.65;;
37517;SDS011;23366;52.498;13.446;2023-02-21T16:47:47;8.82;;;2.22;;
37517;SDS011;23366;52.498;13.446;2023-02-21T16:52:56;9.15;;;2.08;;
37517;SDS011;23366;52.498;13.446;2023-02-21T16:55:22;5.28;;;1.85;;
37517;SDS011;23366;52.498;13.446;2023-02-21T16:57:48;10.98;;;2.47;;
37517;SDS011;23366;52.498;13.446;2023-02-21T17:00:16;11.63;;;2.58;;
37517;SDS011;23366;52.498;13.446;2023-02-21T17:02:45;9.18;;;3.65;;
37517;SDS011;23366;52.498;13.446;2023-02-21T17:05:14;7.82;;;3.13;;
37517;SDS011;23366;52.498;13.446;2023-02-21T17:07:40;7.57;;;2.63;;
37517;SDS011;23366;52.498;13.446;2023-02-21T17:10:06;5.22;;;3.35;;
37517;SDS011;23366;52.498;13.446;2023-02-21T17:12:32;9.13;;;4.45;;
37517;SDS011;23366;52.498;13.446;2023-02-21T17:14:58;12.82;;;7.05;;
37517;SDS011;23366;52.498;13.446;2023-02-21T17:17:23;16.55;;;5.53;;
37517;SDS011;23366;52.498;13.446;2023-02-21T17:19:49;14.80;;;5.05;;
37517;SDS011;23366;52.498;13.446;2023-02-21T17:22:14;3.92;;;2.38;;
37517;SDS011;23366;52.498;13.446;2023-02-21T17:24:40;9.25;;;3.20;;
37517;SDS011;23366;52.498;13.446;2023-02-21T17:27:06;9.75;;;1.73;;
37517;SDS011;23366;52.498;13.446;2023-02-21T17:29:32;5.93;;;1.90;;
37517;SDS011;23366;52.498;13.446;2023-02-21T17:31:58;20.58;;;2.35;;
37517;SDS011;23366;52.498;13.446;2023-02-21T17:34:26;15.60;;;2.92;;
37517;SDS011;23366;52.498;13.446;2023-02-21T17:36:52;10.07;;;2.53;;
37517;SDS011;23366;52.498;13.446;2023-02-21T17:39:19;18.35;;;3.10;;
37517;SDS011;23366;52.498;13.446;2023-02-21T17:41:46;10.15;;;2.40;;
37517;SDS011;23366;52.498;13.446;2023-02-21T17:44:12;10.60;;;2.78;;
37517;SDS011;23366;52.498;13.446;2023-02-21T17:46:38;10.30;;;3.25;;
37517;SDS011;23366;52.498;13.446;2023-02-21T17:49:04;13.38;;;4.50;;
37517;SDS011;23366;52.498;13.446;2023-02-21T17:51:29;5.60;;;2.63;;
37517;SDS011;23366;52.498;13.446;2023-02-21T17:53:55;8.30;;;2.65;;
37517;SDS011;23366;52.498;13.446;2023-02-21T17:56:23;18.75;;;4.03;;
37517;SDS011;23366;52.498;13.446;2023-02-21T17:58:51;11.65;;;2.83;;
37517;SDS011;23366;52.498;13.446;2023-02-21T18:01:17;16.35;;;3.10;;
37517;SDS011;23366;52.498;13.446;2023-02-21T18:03:44;13.23;;;3.88;;
37517;SDS011;23366;52.498;13.446;2023-02-21T18:06:14;10.07;;;3.45;;
37517;SDS011;23366;52.498;13.446;2023-02-21T18:08:43;12.30;;;2.80;;
37517;SDS011;23366;52.498;13.446;2023-02-21T18:11:13;12.18;;;3.40;;